Arkansas Post National Memor, Arkansas
Current Conditions -  °F | °C
As of 9:53 AM on Monday 22 Dec 2014 (Local Time) from KPBF Reporting Station
Overcast Overcast  
Wind Chill: 11°   Ceiling: 800
Heat Index: 11°   Visibility: 10mi
Dew Point:   Wind: 13mph
Humidity: 89%   Direction: 160°SSE
Pressure: 29.74"   Gusts: NA
Location:  34.1564°N, 91.3915°W
Report Text: KPBF 221553Z AUTO 16011KT 10SM OVC008 11/09 A2974 RMK AO2 CIG 007V012 SLP070 T01110094
Loading
Personal Weather Stations






























Interactive Weather Map New forecast layout! Learn more

10-Day Weather Forecast

Advertisements
Track Severe Weather on mobile